Pagina principale
METAR-TAF:

METAR-TAF

Aeroporti :

Aeroporto di Decimomannu

Decimomannu, Italia

latitudine: 39-21N, longitudine: 008-58E, altezza: 29 m

Osservazione

Il bollettino è stato emesso 38 minuti fa, alle 23:55 UTC
Vento 5 kt da nord
Temperature 16°C
Umidità 88%
Pressione 1013 hPa
Visibilità 10 km o più
nessuna nube inferiore a 1500 m e nessun cumulonembo

METAR: LIED 152355Z 35005KT CAVOK 16/14 Q1013 RMK SCT SCT200 VIS MIN 9999 WIND THR35 /////KT WIND THR17 02005KT BLU

Ora: 02:33 (00:33 UTC)

Previsione

Il bollettino è stato emesso 1 ora e 33 minuti fa, alle 23:00 UTC
Previsione valida dal 16 alle 00 UTC al 16 alle 09 UTC
Vento 6 kt da nord-ovest
Visibilità 10 km o più
nessuna nube inferiore a 1500 m e nessun cumulonembo
Evoluzione graduale
dal 16 alle 03 UTC al 16 alle 05 UTC
Vento 15 kt da nord-ovest

TAF: LIED 152300Z 1600/1609 32006KT CAVOK BECMG 1603/1605 32015KT

Osservazioni e previsioni meteorologiche di più di 4000 aeroporti (messaggi METAR e TAF).

Le stazioni disponibili sono rappresentate dai dischi gialli e rossi sulla carta.

Puntare il mouse per vedere il nome della stazione.

Clicca sopra per visualizzare le osservazioni e previsioni meteorologiche.

Per cambiare la mappa : fare clic sui pulsanti verdi con una croce nera per ingrandire, il pulsante verde con un trattino per diminuire, o sulla freccia verde per le mappe adiacenti.


METAR-TAF: